Bourbon Liberty 309 — FIRR — position and weather

sailwx.info

Track history (hours):
 
Tides and Currents Weather Stations Pressure Air Temp Water Temp Dewpoint Dewpoint Depression Visibility Wind Speed Wind Dir Waves Ship Positions

Bourbon Liberty 309

Last reported at 2018-Feb-23 04:30 UTC. Time now 2018-Feb-23 04:37 UTC.
Position S 05°22' E 011°27'.

Length 66 m; draft 4.5 m.

Type: Other ship. MMSI: 228057800.

Date/timePositionNaut miles runAvg speedWind from/ knotsBaromVisibWave heightAir tempDewpointWater temp
2018-Feb-23 04:30S 05°22' E 011°27'3 6.7
2018-Feb-23 04:00S 05°19' E 011°29'3 6.8
2018-Feb-23 03:30S 05°16' E 011°31'  
2018-Feb-18 00:18S 05°01' E 011°41'8 2.8
2018-Feb-17 21:26S 05°08' E 011°38'1 2.6
2018-Feb-17 20:58S 05°09' E 011°37'1 2.7
2018-Feb-17 20:30S 05°10' E 011°37'1 2.7
2018-Feb-17 20:00S 05°12' E 011°36'1 2.8
2018-Feb-17 19:30S 05°13' E 011°35'1 2.6
2018-Feb-17 19:00S 05°14' E 011°35'2 3.8
2018-Feb-17 18:30S 05°16' E 011°34'0 0.1
2018-Feb-17 17:55S 05°16' E 011°34'0 0.0
2018-Feb-17 17:30S 05°16' E 011°34'1 1.7
2018-Feb-17 16:59S 05°16' E 011°34'0 0.2
2018-Feb-17 16:30S 05°16' E 011°34'0 0.0
2018-Feb-17 16:01S 05°16' E 011°34'0 0.0
2018-Feb-17 15:31S 05°16' E 011°34'0 0.0
2018-Feb-17 15:00S 05°16' E 011°34'0 0.0
2018-Feb-17 14:30S 05°16' E 011°34'0 0.0
2018-Feb-17 13:59S 05°16' E 011°34'0 0.1
2018-Feb-17 13:30S 05°16' E 011°34'0 0.1
2018-Feb-17 12:59S 05°16' E 011°34'0 0.0
2018-Feb-17 12:28S 05°16' E 011°34'0 0.0
2018-Feb-17 11:59S 05°16' E 011°34'0 0.0
2018-Feb-17 11:30S 05°16' E 011°34'0 0.0
2018-Feb-17 10:59S 05°16' E 011°34'0 0.2
2018-Feb-17 10:30S 05°16' E 011°34'0 0.1
2018-Feb-17 10:00S 05°16' E 011°34'0 0.0
2018-Feb-17 09:29S 05°16' E 011°34'0 0.2
2018-Feb-17 09:01S 05°16' E 011°34'0 0.3
2018-Feb-17 08:30S 05°17' E 011°34'0 0.2
2018-Feb-17 07:59S 05°16' E 011°34'0 0.6
2018-Feb-17 07:30S 05°16' E 011°34'1 2.2
2018-Feb-17 06:59S 05°16' E 011°35'0 0.0
2018-Feb-17 06:28S 05°16' E 011°35'0 0.1
2018-Feb-17 05:59S 05°16' E 011°35'1 1.3
2018-Feb-17 05:30S 05°16' E 011°35'0 0.1
2018-Feb-17 05:00S 05°16' E 011°35'0 0.1
2018-Feb-17 04:30S 05°17' E 011°35'0 0.1
2018-Feb-17 04:00S 05°17' E 011°35'0 0.1
2018-Feb-17 03:30S 05°17' E 011°35'0 0.0
2018-Feb-17 03:00S 05°17' E 011°35'0 0.2
2018-Feb-17 02:30S 05°17' E 011°35'0 0.1
2018-Feb-17 02:00S 05°17' E 011°35'0 0.0
2018-Feb-17 01:31S 05°17' E 011°35'0 0.1
2018-Feb-17 01:00S 05°17' E 011°35'0 0.4
2018-Feb-17 00:30S 05°17' E 011°35'0 0.3
2018-Feb-17 00:00S 05°16' E 011°35'0 0.0
2018-Feb-16 23:30S 05°16' E 011°35'0 0.4
2018-Feb-16 22:59S 05°16' E 011°35'0 0.7
2018-Feb-16 22:23S 05°16' E 011°35'0 0.4
2018-Feb-16 21:56S 05°16' E 011°35'0 0.0
2018-Feb-16 21:29S 05°16' E 011°35'0 0.0
2018-Feb-16 20:56S 05°16' E 011°35'0 0.0
2018-Feb-16 20:29S 05°16' E 011°35'0 0.2
2018-Feb-16 19:59S 05°16' E 011°35'0 0.2
2018-Feb-16 19:29S 05°16' E 011°34'0 0.0
2018-Feb-16 18:59S 05°16' E 011°34'0 0.0
2018-Feb-16 18:29S 05°16' E 011°34'0 0.0
2018-Feb-16 17:56S 05°16' E 011°34'0 0.0
2018-Feb-16 17:26S 05°16' E 011°34'0 0.0
2018-Feb-16 16:59S 05°16' E 011°34'0 0.0
2018-Feb-16 16:23S 05°16' E 011°34'0 0.0
2018-Feb-16 15:59S 05°16' E 011°34'0 0.1
2018-Feb-16 15:26S 05°16' E 011°34'0 0.1
2018-Feb-16 15:00S 05°16' E 011°35'1 1.6
2018-Feb-16 14:30S 05°16' E 011°34'0 0.0
2018-Feb-16 13:59S 05°16' E 011°34'0 0.0
2018-Feb-16 13:30S 05°16' E 011°34'0 0.0
2018-Feb-16 13:00S 05°16' E 011°34'0 0.0
2018-Feb-16 12:30S 05°16' E 011°34'0 0.0
2018-Feb-16 11:59S 05°16' E 011°34'0 0.0
2018-Feb-16 11:30S 05°16' E 011°34'0 0.0
2018-Feb-16 10:59S 05°16' E 011°34'0 0.0
2018-Feb-16 10:31S 05°16' E 011°34'0 0.0
2018-Feb-16 10:00S 05°16' E 011°34'0 0.4
2018-Feb-16 09:30S 05°17' E 011°34'0 0.3
2018-Feb-16 08:59S 05°17' E 011°34'4 7.4
2018-Feb-16 08:30S 05°18' E 011°31'5 9.9
2018-Feb-16 08:00S 05°22' E 011°27'1 2.7
2018-Feb-16 07:30S 05°23' E 011°27'0 0.0
2018-Feb-16 07:01S 05°23' E 011°27'0 0.5
2018-Feb-16 06:29S 05°23' E 011°27'0 0.4
2018-Feb-16 05:59S 05°22' E 011°27'1 1.1
2018-Feb-16 05:30S 05°22' E 011°26'0 0.7
2018-Feb-16 05:00S 05°22' E 011°27'0 0.8
2018-Feb-16 04:30S 05°22' E 011°27'1 1.2
2018-Feb-16 04:00S 05°22' E 011°28'3 5.5
2018-Feb-16 03:28S 05°19' E 011°29'3 5.6
2018-Feb-16 02:58S 05°17' E 011°30'15 0.4
2018-Feb-14 12:40S 05°05' E 011°40'1 5.9
2018-Feb-14 12:30S 05°05' E 011°39'4 7.2
2018-Feb-14 11:59S 05°09' E 011°37'3 7.2
2018-Feb-14 11:30S 05°12' E 011°36'4 7.1
2018-Feb-14 10:59S 05°16' E 011°35'1 3.1
2018-Feb-14 10:30S 05°17' E 011°34'0 0.1
2018-Feb-14 09:59S 05°16' E 011°34'0 0.0
2018-Feb-14 09:30S 05°16' E 011°34'0 0.0
2018-Feb-14 09:00S 05°16' E 011°34'0 0.0
2018-Feb-14 08:30S 05°16' E 011°34'0 0.0
2018-Feb-14 08:00S 05°16' E 011°34'0 0.0
2018-Feb-14 07:28S 05°16' E 011°34'0 0.0
2018-Feb-14 06:56S 05°16' E 011°34'0 0.0
2018-Feb-14 06:27S 05°16' E 011°34'0 0.0
2018-Feb-14 06:00S 05°16' E 011°34'0 0.2
2018-Feb-14 05:30S 05°16' E 011°34'0 0.4
2018-Feb-14 04:58S 05°17' E 011°34'1 2.1
2018-Feb-14 04:30S 05°16' E 011°34'2 3.3
2018-Feb-14 04:00S 05°14' E 011°35'2 3.5
2018-Feb-14 03:29S 05°12' E 011°36'2 3.4
2018-Feb-14 02:59S 05°11' E 011°36'3 2.3
2018-Feb-14 01:42S 05°08' E 011°38'1 2.2
2018-Feb-14 01:09S 05°07' E 011°38'0 1.9
2018-Feb-14 00:58S 05°07' E 011°38'  
Track history (hours):
 
Tides and Currents Weather Stations Pressure Air Temp Water Temp Dewpoint Dewpoint Depression Visibility Wind Speed Wind Dir Waves Ship Positions

Bourbon Liberty 309

Last reported at 2018-Feb-23 04:30 UTC. Time now 2018-Feb-23 04:37 UTC.
Position S 05°22' E 011°27'.

Length 66 m; draft 4.5 m.

Type: Other ship. MMSI: 228057800.

Date/timePositionNaut miles runAvg speedWind from/ knotsBaromVisibWave heightAir tempDewpointWater temp
2018-Feb-23 04:30S 05°22' E 011°27'3 6.7
2018-Feb-23 04:00S 05°19' E 011°29'3 6.8
2018-Feb-23 03:30S 05°16' E 011°31'  
2018-Feb-18 00:18S 05°01' E 011°41'8 2.8
2018-Feb-17 21:26S 05°08' E 011°38'1 2.6
2018-Feb-17 20:58S 05°09' E 011°37'1 2.7
2018-Feb-17 20:30S 05°10' E 011°37'1 2.7
2018-Feb-17 20:00S 05°12' E 011°36'1 2.8
2018-Feb-17 19:30S 05°13' E 011°35'1 2.6
2018-Feb-17 19:00S 05°14' E 011°35'2 3.8
2018-Feb-17 18:30S 05°16' E 011°34'0 0.1
2018-Feb-17 17:55S 05°16' E 011°34'0 0.0
2018-Feb-17 17:30S 05°16' E 011°34'1 1.7
2018-Feb-17 16:59S 05°16' E 011°34'0 0.2
2018-Feb-17 16:30S 05°16' E 011°34'0 0.0
2018-Feb-17 16:01S 05°16' E 011°34'0 0.0
2018-Feb-17 15:31S 05°16' E 011°34'0 0.0
2018-Feb-17 15:00S 05°16' E 011°34'0 0.0
2018-Feb-17 14:30S 05°16' E 011°34'0 0.0
2018-Feb-17 13:59S 05°16' E 011°34'0 0.1
2018-Feb-17 13:30S 05°16' E 011°34'0 0.1
2018-Feb-17 12:59S 05°16' E 011°34'0 0.0
2018-Feb-17 12:28S 05°16' E 011°34'0 0.0
2018-Feb-17 11:59S 05°16' E 011°34'0 0.0
2018-Feb-17 11:30S 05°16' E 011°34'0 0.0
2018-Feb-17 10:59S 05°16' E 011°34'0 0.2
2018-Feb-17 10:30S 05°16' E 011°34'0 0.1
2018-Feb-17 10:00S 05°16' E 011°34'0 0.0
2018-Feb-17 09:29S 05°16' E 011°34'0 0.2
2018-Feb-17 09:01S 05°16' E 011°34'0 0.3
2018-Feb-17 08:30S 05°17' E 011°34'0 0.2
2018-Feb-17 07:59S 05°16' E 011°34'0 0.6
2018-Feb-17 07:30S 05°16' E 011°34'1 2.2
2018-Feb-17 06:59S 05°16' E 011°35'0 0.0
2018-Feb-17 06:28S 05°16' E 011°35'0 0.1
2018-Feb-17 05:59S 05°16' E 011°35'1 1.3
2018-Feb-17 05:30S 05°16' E 011°35'0 0.1
2018-Feb-17 05:00S 05°16' E 011°35'0 0.1
2018-Feb-17 04:30S 05°17' E 011°35'0 0.1
2018-Feb-17 04:00S 05°17' E 011°35'0 0.1
2018-Feb-17 03:30S 05°17' E 011°35'0 0.0
2018-Feb-17 03:00S 05°17' E 011°35'0 0.2
2018-Feb-17 02:30S 05°17' E 011°35'0 0.1
2018-Feb-17 02:00S 05°17' E 011°35'0 0.0
2018-Feb-17 01:31S 05°17' E 011°35'0 0.1
2018-Feb-17 01:00S 05°17' E 011°35'0 0.4
2018-Feb-17 00:30S 05°17' E 011°35'0 0.3
2018-Feb-17 00:00S 05°16' E 011°35'0 0.0
2018-Feb-16 23:30S 05°16' E 011°35'0 0.4
2018-Feb-16 22:59S 05°16' E 011°35'0 0.7
2018-Feb-16 22:23S 05°16' E 011°35'0 0.4
2018-Feb-16 21:56S 05°16' E 011°35'0 0.0
2018-Feb-16 21:29S 05°16' E 011°35'0 0.0
2018-Feb-16 20:56S 05°16' E 011°35'0 0.0
2018-Feb-16 20:29S 05°16' E 011°35'0 0.2
2018-Feb-16 19:59S 05°16' E 011°35'0 0.2
2018-Feb-16 19:29S 05°16' E 011°34'0 0.0
2018-Feb-16 18:59S 05°16' E 011°34'0 0.0
2018-Feb-16 18:29S 05°16' E 011°34'0 0.0
2018-Feb-16 17:56S 05°16' E 011°34'0 0.0
2018-Feb-16 17:26S 05°16' E 011°34'0 0.0
2018-Feb-16 16:59S 05°16' E 011°34'0 0.0
2018-Feb-16 16:23S 05°16' E 011°34'0 0.0
2018-Feb-16 15:59S 05°16' E 011°34'0 0.1
2018-Feb-16 15:26S 05°16' E 011°34'0 0.1
2018-Feb-16 15:00S 05°16' E 011°35'1 1.6
2018-Feb-16 14:30S 05°16' E 011°34'0 0.0
2018-Feb-16 13:59S 05°16' E 011°34'0 0.0
2018-Feb-16 13:30S 05°16' E 011°34'0 0.0
2018-Feb-16 13:00S 05°16' E 011°34'0 0.0
2018-Feb-16 12:30S 05°16' E 011°34'0 0.0
2018-Feb-16 11:59S 05°16' E 011°34'0 0.0
2018-Feb-16 11:30S 05°16' E 011°34'0 0.0
2018-Feb-16 10:59S 05°16' E 011°34'0 0.0
2018-Feb-16 10:31S 05°16' E 011°34'0 0.0
2018-Feb-16 10:00S 05°16' E 011°34'0 0.4
2018-Feb-16 09:30S 05°17' E 011°34'0 0.3
2018-Feb-16 08:59S 05°17' E 011°34'4 7.4
2018-Feb-16 08:30S 05°18' E 011°31'5 9.9
2018-Feb-16 08:00S 05°22' E 011°27'1 2.7
2018-Feb-16 07:30S 05°23' E 011°27'0 0.0
2018-Feb-16 07:01S 05°23' E 011°27'0 0.5
2018-Feb-16 06:29S 05°23' E 011°27'0 0.4
2018-Feb-16 05:59S 05°22' E 011°27'1 1.1
2018-Feb-16 05:30S 05°22' E 011°26'0 0.7
2018-Feb-16 05:00S 05°22' E 011°27'0 0.8
2018-Feb-16 04:30S 05°22' E 011°27'1 1.2
2018-Feb-16 04:00S 05°22' E 011°28'3 5.5
2018-Feb-16 03:28S 05°19' E 011°29'3 5.6
2018-Feb-16 02:58S 05°17' E 011°30'15 0.4
2018-Feb-14 12:40S 05°05' E 011°40'1 5.9
2018-Feb-14 12:30S 05°05' E 011°39'4 7.2
2018-Feb-14 11:59S 05°09' E 011°37'3 7.2
2018-Feb-14 11:30S 05°12' E 011°36'4 7.1
2018-Feb-14 10:59S 05°16' E 011°35'1 3.1
2018-Feb-14 10:30S 05°17' E 011°34'0 0.1
2018-Feb-14 09:59S 05°16' E 011°34'0 0.0
2018-Feb-14 09:30S 05°16' E 011°34'0 0.0
2018-Feb-14 09:00S 05°16' E 011°34'0 0.0
2018-Feb-14 08:30S 05°16' E 011°34'0 0.0
2018-Feb-14 08:00S 05°16' E 011°34'0 0.0
2018-Feb-14 07:28S 05°16' E 011°34'0 0.0
2018-Feb-14 06:56S 05°16' E 011°34'0 0.0
2018-Feb-14 06:27S 05°16' E 011°34'0 0.0
2018-Feb-14 06:00S 05°16' E 011°34'0 0.2
2018-Feb-14 05:30S 05°16' E 011°34'0 0.4
2018-Feb-14 04:58S 05°17' E 011°34'1 2.1
2018-Feb-14 04:30S 05°16' E 011°34'2 3.3
2018-Feb-14 04:00S 05°14' E 011°35'2 3.5
2018-Feb-14 03:29S 05°12' E 011°36'2 3.4
2018-Feb-14 02:59S 05°11' E 011°36'3 2.3
2018-Feb-14 01:42S 05°08' E 011°38'1 2.2
2018-Feb-14 01:09S 05°07' E 011°38'0 1.9
2018-Feb-14 00:58S 05°07' E 011°38'  

Dump ship's entire track history